sensor_id;sensor_type;location;lat;lon;timestamp;P1;durP1;ratioP1;P2;durP2;ratioP2
33830;SDS011;20137;48.834;8.732;2023-12-29T00:02:21;4.68;;;2.75;;
33830;SDS011;20137;48.834;8.732;2023-12-29T00:04:47;5.68;;;2.70;;
33830;SDS011;20137;48.834;8.732;2023-12-29T00:07:13;4.65;;;2.60;;
33830;SDS011;20137;48.834;8.732;2023-12-29T00:09:39;3.67;;;2.40;;
33830;SDS011;20137;48.834;8.732;2023-12-29T00:12:06;7.53;;;3.10;;
33830;SDS011;20137;48.834;8.732;2023-12-29T00:14:32;4.05;;;2.88;;
33830;SDS011;20137;48.834;8.732;2023-12-29T00:16:58;4.10;;;2.65;;
33830;SDS011;20137;48.834;8.732;2023-12-29T00:19:25;6.40;;;3.17;;
33830;SDS011;20137;48.834;8.732;2023-12-29T00:21:51;5.30;;;3.00;;
33830;SDS011;20137;48.834;8.732;2023-12-29T00:24:17;4.03;;;3.10;;
33830;SDS011;20137;48.834;8.732;2023-12-29T00:26:43;6.60;;;3.45;;
33830;SDS011;20137;48.834;8.732;2023-12-29T00:29:09;4.75;;;3.20;;
33830;SDS011;20137;48.834;8.732;2023-12-29T00:31:35;5.82;;;3.15;;
33830;SDS011;20137;48.834;8.732;2023-12-29T00:34:01;4.55;;;3.45;;
33830;SDS011;20137;48.834;8.732;2023-12-29T00:36:27;6.10;;;3.10;;
33830;SDS011;20137;48.834;8.732;2023-12-29T00:38:53;5.07;;;3.50;;
33830;SDS011;20137;48.834;8.732;2023-12-29T00:41:19;6.32;;;3.55;;
33830;SDS011;20137;48.834;8.732;2023-12-29T00:43:45;6.05;;;3.55;;
33830;SDS011;20137;48.834;8.732;2023-12-29T00:46:13;4.43;;;3.40;;
33830;SDS011;20137;48.834;8.732;2023-12-29T00:48:39;7.03;;;3.53;;
33830;SDS011;20137;48.834;8.732;2023-12-29T00:51:05;8.70;;;3.65;;
33830;SDS011;20137;48.834;8.732;2023-12-29T00:53:31;5.30;;;4.13;;
33830;SDS011;20137;48.834;8.732;2023-12-29T00:55:59;5.63;;;3.30;;
33830;SDS011;20137;48.834;8.732;2023-12-29T00:58:25;5.97;;;4.10;;
33830;SDS011;20137;48.834;8.732;2023-12-29T01:00:51;5.25;;;3.90;;
33830;SDS011;20137;48.834;8.732;2023-12-29T01:03:17;5.53;;;3.50;;
33830;SDS011;20137;48.834;8.732;2023-12-29T01:05:43;6.30;;;3.92;;
33830;SDS011;20137;48.834;8.732;2023-12-29T01:08:09;6.40;;;4.05;;
33830;SDS011;20137;48.834;8.732;2023-12-29T01:10:35;5.90;;;3.80;;
33830;SDS011;20137;48.834;8.732;2023-12-29T01:13:01;5.85;;;3.60;;
33830;SDS011;20137;48.834;8.732;2023-12-29T01:15:27;6.88;;;4.22;;
33830;SDS011;20137;48.834;8.732;2023-12-29T01:17:53;6.63;;;4.20;;
33830;SDS011;20137;48.834;8.732;2023-12-29T01:20:19;6.50;;;4.07;;
33830;SDS011;20137;48.834;8.732;2023-12-29T01:22:45;6.95;;;4.20;;
33830;SDS011;20137;48.834;8.732;2023-12-29T01:25:11;5.15;;;3.78;;
33830;SDS011;20137;48.834;8.732;2023-12-29T01:27:37;5.03;;;3.80;;
33830;SDS011;20137;48.834;8.732;2023-12-29T01:30:04;6.65;;;4.13;;
33830;SDS011;20137;48.834;8.732;2023-12-29T01:32:30;6.03;;;3.92;;
33830;SDS011;20137;48.834;8.732;2023-12-29T01:34:56;5.80;;;4.03;;
33830;SDS011;20137;48.834;8.732;2023-12-29T01:37:22;5.88;;;3.75;;
33830;SDS011;20137;48.834;8.732;2023-12-29T01:39:48;6.15;;;3.85;;
33830;SDS011;20137;48.834;8.732;2023-12-29T01:42:14;7.00;;;3.70;;
33830;SDS011;20137;48.834;8.732;2023-12-29T01:44:40;4.85;;;3.67;;
33830;SDS011;20137;48.834;8.732;2023-12-29T01:47:10;5.97;;;3.83;;
33830;SDS011;20137;48.834;8.732;2023-12-29T01:49:36;6.25;;;3.80;;
33830;SDS011;20137;48.834;8.732;2023-12-29T01:52:03;7.10;;;3.70;;
33830;SDS011;20137;48.834;8.732;2023-12-29T01:54:30;7.68;;;3.58;;
33830;SDS011;20137;48.834;8.732;2023-12-29T01:56:57;6.38;;;3.72;;
33830;SDS011;20137;48.834;8.732;2023-12-29T01:59:25;8.18;;;3.80;;
33830;SDS011;20137;48.834;8.732;2023-12-29T02:01:51;4.53;;;3.63;;
33830;SDS011;20137;48.834;8.732;2023-12-29T02:04:17;6.47;;;3.55;;
33830;SDS011;20137;48.834;8.732;2023-12-29T02:06:43;7.03;;;3.63;;
33830;SDS011;20137;48.834;8.732;2023-12-29T02:09:10;5.30;;;3.85;;
33830;SDS011;20137;48.834;8.732;2023-12-29T02:11:41;7.18;;;4.22;;
33830;SDS011;20137;48.834;8.732;2023-12-29T02:14:07;7.32;;;4.03;;
33830;SDS011;20137;48.834;8.732;2023-12-29T02:22:15;5.53;;;4.05;;
33830;SDS011;20137;48.834;8.732;2023-12-29T02:24:47;5.43;;;3.60;;
33830;SDS011;20137;48.834;8.732;2023-12-29T02:29:53;8.65;;;4.43;;
33830;SDS011;20137;48.834;8.732;2023-12-29T02:32:24;11.68;;;4.43;;
33830;SDS011;20137;48.834;8.732;2023-12-29T02:34:52;6.57;;;4.13;;
33830;SDS011;20137;48.834;8.732;2023-12-29T02:37:18;7.43;;;4.55;;
33830;SDS011;20137;48.834;8.732;2023-12-29T02:39:44;9.77;;;4.53;;
33830;SDS011;20137;48.834;8.732;2023-12-29T02:42:10;6.35;;;3.85;;
33830;SDS011;20137;48.834;8.732;2023-12-29T02:44:36;5.88;;;4.00;;
33830;SDS011;20137;48.834;8.732;2023-12-29T02:47:03;7.43;;;4.60;;
33830;SDS011;20137;48.834;8.732;2023-12-29T02:49:29;6.90;;;4.50;;
33830;SDS011;20137;48.834;8.732;2023-12-29T02:51:55;5.82;;;4.13;;
33830;SDS011;20137;48.834;8.732;2023-12-29T02:54:21;7.07;;;4.65;;
33830;SDS011;20137;48.834;8.732;2023-12-29T02:56:47;9.38;;;4.40;;
33830;SDS011;20137;48.834;8.732;2023-12-29T02:59:12;7.22;;;4.50;;
33830;SDS011;20137;48.834;8.732;2023-12-29T03:01:38;6.20;;;4.55;;
33830;SDS011;20137;48.834;8.732;2023-12-29T03:04:06;7.47;;;4.50;;
33830;SDS011;20137;48.834;8.732;2023-12-29T03:06:32;5.75;;;4.22;;
33830;SDS011;20137;48.834;8.732;2023-12-29T03:08:58;6.40;;;4.13;;
33830;SDS011;20137;48.834;8.732;2023-12-29T03:11:23;6.15;;;4.25;;
33830;SDS011;20137;48.834;8.732;2023-12-29T03:13:49;7.63;;;4.32;;
33830;SDS011;20137;48.834;8.732;2023-12-29T03:16:15;9.27;;;4.82;;
33830;SDS011;20137;48.834;8.732;2023-12-29T03:18:41;8.40;;;5.10;;
33830;SDS011;20137;48.834;8.732;2023-12-29T03:21:07;6.05;;;4.40;;
33830;SDS011;20137;48.834;8.732;2023-12-29T03:23:33;7.38;;;4.88;;
33830;SDS011;20137;48.834;8.732;2023-12-29T03:26:00;8.88;;;4.93;;
33830;SDS011;20137;48.834;8.732;2023-12-29T03:28:26;6.65;;;4.57;;
33830;SDS011;20137;48.834;8.732;2023-12-29T03:30:52;7.95;;;4.72;;
33830;SDS011;20137;48.834;8.732;2023-12-29T03:33:18;8.98;;;4.85;;
33830;SDS011;20137;48.834;8.732;2023-12-29T03:35:47;8.85;;;4.45;;
33830;SDS011;20137;48.834;8.732;2023-12-29T03:38:13;8.10;;;4.90;;
33830;SDS011;20137;48.834;8.732;2023-12-29T03:40:39;6.55;;;4.40;;
33830;SDS011;20137;48.834;8.732;2023-12-29T03:43:05;7.68;;;4.60;;
33830;SDS011;20137;48.834;8.732;2023-12-29T03:45:32;7.72;;;4.35;;
33830;SDS011;20137;48.834;8.732;2023-12-29T03:47:58;6.78;;;4.10;;
33830;SDS011;20137;48.834;8.732;2023-12-29T03:50:24;6.43;;;4.53;;
33830;SDS011;20137;48.834;8.732;2023-12-29T03:52:50;6.55;;;4.43;;
33830;SDS011;20137;48.834;8.732;2023-12-29T03:55:16;8.55;;;4.80;;
33830;SDS011;20137;48.834;8.732;2023-12-29T03:57:42;8.48;;;5.05;;
33830;SDS011;20137;48.834;8.732;2023-12-29T04:00:11;11.88;;;5.43;;
33830;SDS011;20137;48.834;8.732;2023-12-29T04:02:37;9.68;;;5.47;;
33830;SDS011;20137;48.834;8.732;2023-12-29T04:05:03;6.45;;;4.38;;
33830;SDS011;20137;48.834;8.732;2023-12-29T04:07:30;6.55;;;4.88;;
33830;SDS011;20137;48.834;8.732;2023-12-29T04:09:56;9.25;;;4.25;;
33830;SDS011;20137;48.834;8.732;2023-12-29T04:12:22;7.38;;;4.43;;
33830;SDS011;20137;48.834;8.732;2023-12-29T04:14:48;7.60;;;4.65;;
33830;SDS011;20137;48.834;8.732;2023-12-29T04:17:14;6.03;;;3.90;;
33830;SDS011;20137;48.834;8.732;2023-12-29T04:19:40;8.80;;;4.88;;
33830;SDS011;20137;48.834;8.732;2023-12-29T04:22:07;7.28;;;4.47;;
33830;SDS011;20137;48.834;8.732;2023-12-29T04:24:33;7.07;;;4.57;;
33830;SDS011;20137;48.834;8.732;2023-12-29T04:26:59;8.80;;;4.38;;
33830;SDS011;20137;48.834;8.732;2023-12-29T04:29:25;5.50;;;3.85;;
33830;SDS011;20137;48.834;8.732;2023-12-29T04:31:51;6.57;;;4.07;;
33830;SDS011;20137;48.834;8.732;2023-12-29T04:34:17;5.63;;;3.83;;
33830;SDS011;20137;48.834;8.732;2023-12-29T04:36:43;7.03;;;4.15;;
33830;SDS011;20137;48.834;8.732;2023-12-29T04:39:09;7.55;;;4.00;;
33830;SDS011;20137;48.834;8.732;2023-12-29T04:41:35;4.95;;;3.58;;
33830;SDS011;20137;48.834;8.732;2023-12-29T04:44:01;5.38;;;4.10;;
33830;SDS011;20137;48.834;8.732;2023-12-29T04:46:27;5.75;;;3.30;;
33830;SDS011;20137;48.834;8.732;2023-12-29T04:48:53;7.03;;;4.00;;
33830;SDS011;20137;48.834;8.732;2023-12-29T04:51:19;5.57;;;4.07;;
33830;SDS011;20137;48.834;8.732;2023-12-29T04:53:45;7.85;;;3.65;;
33830;SDS011;20137;48.834;8.732;2023-12-29T04:56:11;5.45;;;3.83;;
33830;SDS011;20137;48.834;8.732;2023-12-29T04:58:37;4.82;;;3.53;;
33830;SDS011;20137;48.834;8.732;2023-12-29T05:01:03;5.25;;;3.22;;
33830;SDS011;20137;48.834;8.732;2023-12-29T05:03:29;4.72;;;3.33;;
33830;SDS011;20137;48.834;8.732;2023-12-29T05:05:55;4.45;;;3.38;;
33830;SDS011;20137;48.834;8.732;2023-12-29T05:08:21;4.55;;;3.25;;
33830;SDS011;20137;48.834;8.732;2023-12-29T05:10:47;4.45;;;3.20;;
33830;SDS011;20137;48.834;8.732;2023-12-29T05:13:13;6.05;;;3.05;;
33830;SDS011;20137;48.834;8.732;2023-12-29T05:15:39;3.95;;;2.95;;
33830;SDS011;20137;48.834;8.732;2023-12-29T05:18:05;4.32;;;2.75;;
33830;SDS011;20137;48.834;8.732;2023-12-29T05:20:31;4.10;;;3.03;;
33830;SDS011;20137;48.834;8.732;2023-12-29T05:22:58;5.53;;;3.20;;
33830;SDS011;20137;48.834;8.732;2023-12-29T05:25:24;4.65;;;3.33;;
33830;SDS011;20137;48.834;8.732;2023-12-29T05:27:51;8.55;;;4.75;;
33830;SDS011;20137;48.834;8.732;2023-12-29T05:30:17;6.93;;;4.40;;
33830;SDS011;20137;48.834;8.732;2023-12-29T05:32:43;5.57;;;3.60;;
33830;SDS011;20137;48.834;8.732;2023-12-29T05:35:09;4.80;;;3.88;;
33830;SDS011;20137;48.834;8.732;2023-12-29T05:37:35;6.13;;;3.10;;
33830;SDS011;20137;48.834;8.732;2023-12-29T05:40:01;5.43;;;4.85;;
33830;SDS011;20137;48.834;8.732;2023-12-29T05:42:27;5.03;;;4.53;;
33830;SDS011;20137;48.834;8.732;2023-12-29T05:44:53;8.18;;;3.72;;
33830;SDS011;20137;48.834;8.732;2023-12-29T05:47:19;5.57;;;3.03;;
33830;SDS011;20137;48.834;8.732;2023-12-29T05:49:45;4.20;;;2.97;;
33830;SDS011;20137;48.834;8.732;2023-12-29T05:52:11;3.28;;;2.47;;
33830;SDS011;20137;48.834;8.732;2023-12-29T05:54:37;4.13;;;2.25;;
33830;SDS011;20137;48.834;8.732;2023-12-29T05:57:03;3.53;;;2.92;;
33830;SDS011;20137;48.834;8.732;2023-12-29T05:59:29;3.72;;;2.55;;
33830;SDS011;20137;48.834;8.732;2023-12-29T06:01:55;2.33;;;1.80;;
33830;SDS011;20137;48.834;8.732;2023-12-29T06:04:21;2.67;;;1.90;;
33830;SDS011;20137;48.834;8.732;2023-12-29T06:06:47;3.10;;;2.15;;
33830;SDS011;20137;48.834;8.732;2023-12-29T06:09:14;1.75;;;1.27;;
33830;SDS011;20137;48.834;8.732;2023-12-29T06:11:40;2.10;;;1.40;;
33830;SDS011;20137;48.834;8.732;2023-12-29T06:14:06;1.13;;;1.02;;
33830;SDS011;20137;48.834;8.732;2023-12-29T06:16:32;1.25;;;1.00;;
33830;SDS011;20137;48.834;8.732;2023-12-29T06:18:58;1.88;;;1.10;;
33830;SDS011;20137;48.834;8.732;2023-12-29T06:21:25;1.58;;;0.95;;
33830;SDS011;20137;48.834;8.732;2023-12-29T06:23:51;1.08;;;0.80;;
33830;SDS011;20137;48.834;8.732;2023-12-29T06:26:17;1.35;;;1.00;;
33830;SDS011;20137;48.834;8.732;2023-12-29T06:28:43;1.58;;;1.08;;
33830;SDS011;20137;48.834;8.732;2023-12-29T06:31:10;1.10;;;0.80;;
33830;SDS011;20137;48.834;8.732;2023-12-29T06:33:36;1.77;;;0.70;;
33830;SDS011;20137;48.834;8.732;2023-12-29T06:36:02;0.88;;;0.60;;
33830;SDS011;20137;48.834;8.732;2023-12-29T06:38:28;0.80;;;0.50;;
33830;SDS011;20137;48.834;8.732;2023-12-29T06:40:55;1.13;;;0.70;;
33830;SDS011;20137;48.834;8.732;2023-12-29T06:43:21;2.50;;;1.45;;
33830;SDS011;20137;48.834;8.732;2023-12-29T06:45:50;2.15;;;1.20;;
33830;SDS011;20137;48.834;8.732;2023-12-29T06:48:16;0.80;;;0.75;;
33830;SDS011;20137;48.834;8.732;2023-12-29T06:50:42;2.15;;;1.75;;
33830;SDS011;20137;48.834;8.732;2023-12-29T06:53:08;1.77;;;1.38;;
33830;SDS011;20137;48.834;8.732;2023-12-29T06:55:34;1.10;;;0.70;;
33830;SDS011;20137;48.834;8.732;2023-12-29T06:58:00;2.13;;;1.48;;
33830;SDS011;20137;48.834;8.732;2023-12-29T07:00:26;1.35;;;0.70;;
33830;SDS011;20137;48.834;8.732;2023-12-29T07:02:52;1.15;;;1.00;;
33830;SDS011;20137;48.834;8.732;2023-12-29T07:05:18;1.00;;;0.80;;
33830;SDS011;20137;48.834;8.732;2023-12-29T07:07:44;1.02;;;0.80;;
33830;SDS011;20137;48.834;8.732;2023-12-29T07:10:12;1.17;;;1.02;;
33830;SDS011;20137;48.834;8.732;2023-12-29T07:12:40;1.23;;;1.13;;
33830;SDS011;20137;48.834;8.732;2023-12-29T07:15:07;2.53;;;1.20;;
33830;SDS011;20137;48.834;8.732;2023-12-29T07:17:33;0.70;;;0.60;;
33830;SDS011;20137;48.834;8.732;2023-12-29T07:19:59;1.75;;;0.85;;
33830;SDS011;20137;48.834;8.732;2023-12-29T07:22:26;0.90;;;0.82;;
33830;SDS011;20137;48.834;8.732;2023-12-29T07:24:52;1.30;;;1.10;;
33830;SDS011;20137;48.834;8.732;2023-12-29T07:27:18;1.30;;;0.90;;
33830;SDS011;20137;48.834;8.732;2023-12-29T07:29:44;1.80;;;1.30;;
33830;SDS011;20137;48.834;8.732;2023-12-29T07:32:10;1.50;;;1.30;;
33830;SDS011;20137;48.834;8.732;2023-12-29T07:34:36;1.38;;;1.02;;
33830;SDS011;20137;48.834;8.732;2023-12-29T07:37:02;1.90;;;1.00;;
33830;SDS011;20137;48.834;8.732;2023-12-29T07:39:28;3.22;;;1.73;;
33830;SDS011;20137;48.834;8.732;2023-12-29T07:41:54;3.75;;;1.33;;
33830;SDS011;20137;48.834;8.732;2023-12-29T07:44:20;1.45;;;1.00;;
33830;SDS011;20137;48.834;8.732;2023-12-29T07:46:46;1.33;;;1.20;;
33830;SDS011;20137;48.834;8.732;2023-12-29T07:49:12;1.35;;;1.08;;
33830;SDS011;20137;48.834;8.732;2023-12-29T07:51:41;1.70;;;1.00;;
33830;SDS011;20137;48.834;8.732;2023-12-29T07:54:08;3.35;;;1.50;;
33830;SDS011;20137;48.834;8.732;2023-12-29T07:56:34;1.17;;;1.00;;
33830;SDS011;20137;48.834;8.732;2023-12-29T07:59:02;1.10;;;0.98;;
33830;SDS011;20137;48.834;8.732;2023-12-29T08:01:28;1.52;;;1.13;;
33830;SDS011;20137;48.834;8.732;2023-12-29T08:03:54;1.60;;;1.50;;
33830;SDS011;20137;48.834;8.732;2023-12-29T08:06:20;2.25;;;1.20;;
33830;SDS011;20137;48.834;8.732;2023-12-29T08:08:46;1.67;;;1.40;;
33830;SDS011;20137;48.834;8.732;2023-12-29T08:11:15;1.55;;;1.13;;
33830;SDS011;20137;48.834;8.732;2023-12-29T08:13:42;2.20;;;1.52;;
33830;SDS011;20137;48.834;8.732;2023-12-29T08:16:09;2.78;;;1.77;;
33830;SDS011;20137;48.834;8.732;2023-12-29T08:18:34;3.17;;;1.35;;
33830;SDS011;20137;48.834;8.732;2023-12-29T08:21:01;2.60;;;1.10;;
33830;SDS011;20137;48.834;8.732;2023-12-29T08:23:27;2.83;;;1.35;;
33830;SDS011;20137;48.834;8.732;2023-12-29T08:25:53;1.00;;;0.60;;
33830;SDS011;20137;48.834;8.732;2023-12-29T08:28:19;1.38;;;0.60;;
33830;SDS011;20137;48.834;8.732;2023-12-29T08:30:45;0.98;;;0.45;;
33830;SDS011;20137;48.834;8.732;2023-12-29T08:33:11;0.75;;;0.52;;
33830;SDS011;20137;48.834;8.732;2023-12-29T08:35:41;5.28;;;1.48;;
33830;SDS011;20137;48.834;8.732;2023-12-29T08:38:07;0.60;;;0.45;;
33830;SDS011;20137;48.834;8.732;2023-12-29T08:40:34;1.23;;;0.90;;
33830;SDS011;20137;48.834;8.732;2023-12-29T08:43:01;0.98;;;0.90;;
33830;SDS011;20137;48.834;8.732;2023-12-29T08:45:27;1.42;;;0.60;;
33830;SDS011;20137;48.834;8.732;2023-12-29T08:47:53;1.40;;;0.60;;
33830;SDS011;20137;48.834;8.732;2023-12-29T08:50:19;0.90;;;0.80;;
33830;SDS011;20137;48.834;8.732;2023-12-29T08:52:46;0.90;;;0.70;;
33830;SDS011;20137;48.834;8.732;2023-12-29T08:55:12;2.75;;;2.10;;
33830;SDS011;20137;48.834;8.732;2023-12-29T08:57:41;1.45;;;1.02;;
33830;SDS011;20137;48.834;8.732;2023-12-29T09:00:07;2.63;;;1.60;;
33830;SDS011;20137;48.834;8.732;2023-12-29T09:02:34;2.42;;;0.82;;
33830;SDS011;20137;48.834;8.732;2023-12-29T09:05:00;1.10;;;0.80;;
33830;SDS011;20137;48.834;8.732;2023-12-29T09:07:26;0.80;;;0.60;;
33830;SDS011;20137;48.834;8.732;2023-12-29T09:09:54;0.73;;;0.70;;
33830;SDS011;20137;48.834;8.732;2023-12-29T09:12:20;0.88;;;0.75;;
33830;SDS011;20137;48.834;8.732;2023-12-29T09:14:46;1.05;;;0.70;;
33830;SDS011;20137;48.834;8.732;2023-12-29T09:17:12;0.80;;;0.57;;
33830;SDS011;20137;48.834;8.732;2023-12-29T09:19:38;0.47;;;0.43;;
33830;SDS011;20137;48.834;8.732;2023-12-29T09:22:04;3.25;;;2.17;;
33830;SDS011;20137;48.834;8.732;2023-12-29T09:24:30;1.48;;;0.80;;
33830;SDS011;20137;48.834;8.732;2023-12-29T09:26:56;0.80;;;0.80;;
33830;SDS011;20137;48.834;8.732;2023-12-29T09:29:22;1.77;;;0.98;;
33830;SDS011;20137;48.834;8.732;2023-12-29T09:31:48;14.93;;;5.70;;
33830;SDS011;20137;48.834;8.732;2023-12-29T09:34:14;3.95;;;3.17;;
33830;SDS011;20137;48.834;8.732;2023-12-29T09:36:40;0.73;;;0.73;;
33830;SDS011;20137;48.834;8.732;2023-12-29T09:39:06;1.05;;;0.68;;
33830;SDS011;20137;48.834;8.732;2023-12-29T09:41:33;1.45;;;1.02;;
33830;SDS011;20137;48.834;8.732;2023-12-29T09:44:00;1.52;;;1.10;;
33830;SDS011;20137;48.834;8.732;2023-12-29T09:46:27;1.50;;;0.98;;
33830;SDS011;20137;48.834;8.732;2023-12-29T09:48:54;2.15;;;0.82;;
33830;SDS011;20137;48.834;8.732;2023-12-29T09:51:22;1.10;;;0.80;;
33830;SDS011;20137;48.834;8.732;2023-12-29T09:53:52;1.42;;;0.70;;
33830;SDS011;20137;48.834;8.732;2023-12-29T09:56:18;1.50;;;0.80;;
33830;SDS011;20137;48.834;8.732;2023-12-29T09:58:46;2.17;;;1.08;;
33830;SDS011;20137;48.834;8.732;2023-12-29T10:01:13;2.70;;;1.70;;
33830;SDS011;20137;48.834;8.732;2023-12-29T10:03:39;6.88;;;3.80;;
33830;SDS011;20137;48.834;8.732;2023-12-29T10:06:06;1.98;;;1.30;;
33830;SDS011;20137;48.834;8.732;2023-12-29T10:08:36;1.02;;;1.00;;
33830;SDS011;20137;48.834;8.732;2023-12-29T10:11:03;4.03;;;3.55;;
33830;SDS011;20137;48.834;8.732;2023-12-29T10:13:31;3.30;;;3.10;;
33830;SDS011;20137;48.834;8.732;2023-12-29T10:16:04;0.65;;;0.65;;
33830;SDS011;20137;48.834;8.732;2023-12-29T10:18:38;1.25;;;0.80;;
33830;SDS011;20137;48.834;8.732;2023-12-29T10:26:20;0.95;;;0.80;;
33830;SDS011;20137;48.834;8.732;2023-12-29T10:28:47;2.15;;;0.70;;
33830;SDS011;20137;48.834;8.732;2023-12-29T10:31:14;1.48;;;1.00;;
33830;SDS011;20137;48.834;8.732;2023-12-29T10:33:43;1.60;;;0.90;;
33830;SDS011;20137;48.834;8.732;2023-12-29T10:36:15;5.15;;;1.83;;
33830;SDS011;20137;48.834;8.732;2023-12-29T10:38:41;1.25;;;0.98;;
33830;SDS011;20137;48.834;8.732;2023-12-29T10:41:10;1.13;;;0.95;;
33830;SDS011;20137;48.834;8.732;2023-12-29T10:43:38;2.05;;;0.60;;
33830;SDS011;20137;48.834;8.732;2023-12-29T10:46:07;0.98;;;0.60;;
33830;SDS011;20137;48.834;8.732;2023-12-29T10:48:34;0.90;;;0.70;;
33830;SDS011;20137;48.834;8.732;2023-12-29T10:51:00;1.00;;;0.68;;
33830;SDS011;20137;48.834;8.732;2023-12-29T10:53:32;0.73;;;0.73;;
33830;SDS011;20137;48.834;8.732;2023-12-29T10:55:58;1.02;;;0.75;;
33830;SDS011;20137;48.834;8.732;2023-12-29T10:58:27;2.42;;;0.70;;
33830;SDS011;20137;48.834;8.732;2023-12-29T11:00:57;1.45;;;1.00;;
33830;SDS011;20137;48.834;8.732;2023-12-29T11:03:23;1.48;;;1.00;;
33830;SDS011;20137;48.834;8.732;2023-12-29T11:05:50;0.95;;;0.85;;
33830;SDS011;20137;48.834;8.732;2023-12-29T11:08:19;2.58;;;0.82;;
33830;SDS011;20137;48.834;8.732;2023-12-29T11:10:47;1.17;;;1.00;;
33830;SDS011;20137;48.834;8.732;2023-12-29T11:13:14;2.95;;;1.23;;
33830;SDS011;20137;48.834;8.732;2023-12-29T11:15:43;2.17;;;0.90;;
33830;SDS011;20137;48.834;8.732;2023-12-29T11:18:13;2.13;;;0.65;;
33830;SDS011;20137;48.834;8.732;2023-12-29T11:20:40;2.03;;;0.90;;
33830;SDS011;20137;48.834;8.732;2023-12-29T11:23:06;0.93;;;0.80;;
33830;SDS011;20137;48.834;8.732;2023-12-29T11:25:33;1.15;;;0.90;;
33830;SDS011;20137;48.834;8.732;2023-12-29T11:27:59;1.48;;;0.93;;
33830;SDS011;20137;48.834;8.732;2023-12-29T11:30:26;0.70;;;0.70;;
33830;SDS011;20137;48.834;8.732;2023-12-29T11:32:53;1.42;;;0.90;;
33830;SDS011;20137;48.834;8.732;2023-12-29T11:35:25;1.10;;;0.90;;
33830;SDS011;20137;48.834;8.732;2023-12-29T11:40:26;1.10;;;0.90;;
33830;SDS011;20137;48.834;8.732;2023-12-29T11:42:56;1.23;;;0.80;;
33830;SDS011;20137;48.834;8.732;2023-12-29T11:47:51;0.93;;;0.80;;
33830;SDS011;20137;48.834;8.732;2023-12-29T11:50:39;1.25;;;0.80;;
33830;SDS011;20137;48.834;8.732;2023-12-29T11:53:05;0.82;;;0.80;;
33830;SDS011;20137;48.834;8.732;2023-12-29T11:55:36;1.63;;;0.90;;
33830;SDS011;20137;48.834;8.732;2023-12-29T11:58:22;0.80;;;0.77;;
33830;SDS011;20137;48.834;8.732;2023-12-29T12:00:49;2.85;;;1.10;;
33830;SDS011;20137;48.834;8.732;2023-12-29T12:03:24;1.02;;;0.88;;
33830;SDS011;20137;48.834;8.732;2023-12-29T12:05:50;1.27;;;0.80;;
33830;SDS011;20137;48.834;8.732;2023-12-29T12:08:32;1.00;;;0.88;;
33830;SDS011;20137;48.834;8.732;2023-12-29T12:13:49;1.75;;;1.00;;
33830;SDS011;20137;48.834;8.732;2023-12-29T12:18:59;2.33;;;0.98;;
33830;SDS011;20137;48.834;8.732;2023-12-29T12:21:26;1.55;;;1.00;;
33830;SDS011;20137;48.834;8.732;2023-12-29T12:23:52;1.95;;;0.80;;
33830;SDS011;20137;48.834;8.732;2023-12-29T12:26:19;2.17;;;0.88;;
33830;SDS011;20137;48.834;8.732;2023-12-29T12:28:46;1.30;;;1.10;;
33830;SDS011;20137;48.834;8.732;2023-12-29T12:31:12;1.73;;;0.88;;
33830;SDS011;20137;48.834;8.732;2023-12-29T12:33:38;2.95;;;1.48;;
33830;SDS011;20137;48.834;8.732;2023-12-29T12:36:05;2.50;;;0.95;;
33830;SDS011;20137;48.834;8.732;2023-12-29T12:38:31;3.80;;;2.15;;
33830;SDS011;20137;48.834;8.732;2023-12-29T12:41:08;7.35;;;4.32;;
33830;SDS011;20137;48.834;8.732;2023-12-29T12:43:34;38.80;;;20.05;;
33830;SDS011;20137;48.834;8.732;2023-12-29T12:46:01;8.60;;;5.05;;
33830;SDS011;20137;48.834;8.732;2023-12-29T12:50:54;2.65;;;1.58;;
33830;SDS011;20137;48.834;8.732;2023-12-29T12:53:22;11.75;;;7.85;;
33830;SDS011;20137;48.834;8.732;2023-12-29T12:55:48;3.47;;;2.05;;
33830;SDS011;20137;48.834;8.732;2023-12-29T12:58:15;6.22;;;3.90;;
33830;SDS011;20137;48.834;8.732;2023-12-29T13:00:41;2.10;;;1.50;;
33830;SDS011;20137;48.834;8.732;2023-12-29T13:03:07;8.85;;;4.32;;
33830;SDS011;20137;48.834;8.732;2023-12-29T13:05:35;5.88;;;3.22;;
33830;SDS011;20137;48.834;8.732;2023-12-29T13:08:01;7.55;;;4.20;;
33830;SDS011;20137;48.834;8.732;2023-12-29T13:10:28;6.18;;;3.28;;
33830;SDS011;20137;48.834;8.732;2023-12-29T13:12:55;1.73;;;1.63;;
33830;SDS011;20137;48.834;8.732;2023-12-29T13:15:21;4.82;;;3.20;;
33830;SDS011;20137;48.834;8.732;2023-12-29T13:17:51;3.38;;;2.45;;
33830;SDS011;20137;48.834;8.732;2023-12-29T13:20:18;2.20;;;1.23;;
33830;SDS011;20137;48.834;8.732;2023-12-29T13:22:46;1.60;;;1.35;;
33830;SDS011;20137;48.834;8.732;2023-12-29T13:25:15;3.00;;;1.70;;
33830;SDS011;20137;48.834;8.732;2023-12-29T13:27:43;3.03;;;1.10;;
33830;SDS011;20137;48.834;8.732;2023-12-29T13:30:10;1.52;;;1.17;;
33830;SDS011;20137;48.834;8.732;2023-12-29T13:32:37;2.05;;;1.40;;
33830;SDS011;20137;48.834;8.732;2023-12-29T13:35:24;1.75;;;1.25;;
33830;SDS011;20137;48.834;8.732;2023-12-29T13:40:24;2.00;;;1.23;;
33830;SDS011;20137;48.834;8.732;2023-12-29T13:42:51;2.13;;;1.80;;
33830;SDS011;20137;48.834;8.732;2023-12-29T13:45:19;2.08;;;1.08;;
33830;SDS011;20137;48.834;8.732;2023-12-29T13:47:51;1.83;;;1.40;;
33830;SDS011;20137;48.834;8.732;2023-12-29T13:50:18;1.77;;;1.30;;
33830;SDS011;20137;48.834;8.732;2023-12-29T13:52:44;2.22;;;1.60;;
33830;SDS011;20137;48.834;8.732;2023-12-29T13:55:10;4.05;;;1.42;;
33830;SDS011;20137;48.834;8.732;2023-12-29T13:57:36;2.00;;;1.30;;
33830;SDS011;20137;48.834;8.732;2023-12-29T14:02:40;3.33;;;1.20;;
33830;SDS011;20137;48.834;8.732;2023-12-29T14:07:40;1.52;;;1.23;;
33830;SDS011;20137;48.834;8.732;2023-12-29T14:10:09;3.90;;;1.63;;
33830;SDS011;20137;48.834;8.732;2023-12-29T14:12:35;2.60;;;1.45;;
33830;SDS011;20137;48.834;8.732;2023-12-29T14:15:02;2.33;;;1.55;;
33830;SDS011;20137;48.834;8.732;2023-12-29T14:17:28;2.10;;;1.15;;
33830;SDS011;20137;48.834;8.732;2023-12-29T14:19:54;2.97;;;1.55;;
33830;SDS011;20137;48.834;8.732;2023-12-29T14:22:21;3.08;;;1.70;;
33830;SDS011;20137;48.834;8.732;2023-12-29T14:25:04;3.47;;;1.85;;
33830;SDS011;20137;48.834;8.732;2023-12-29T14:27:30;2.40;;;1.73;;
33830;SDS011;20137;48.834;8.732;2023-12-29T14:29:57;2.67;;;1.65;;
33830;SDS011;20137;48.834;8.732;2023-12-29T14:32:23;2.28;;;1.70;;
33830;SDS011;20137;48.834;8.732;2023-12-29T14:34:50;1.67;;;1.40;;
33830;SDS011;20137;48.834;8.732;2023-12-29T14:37:18;2.63;;;1.42;;
33830;SDS011;20137;48.834;8.732;2023-12-29T14:39:50;1.75;;;1.20;;
33830;SDS011;20137;48.834;8.732;2023-12-29T14:42:16;3.15;;;1.75;;
33830;SDS011;20137;48.834;8.732;2023-12-29T14:44:45;2.97;;;1.60;;
33830;SDS011;20137;48.834;8.732;2023-12-29T14:47:12;2.00;;;1.23;;
33830;SDS011;20137;48.834;8.732;2023-12-29T14:49:38;2.45;;;1.63;;
33830;SDS011;20137;48.834;8.732;2023-12-29T14:52:04;2.60;;;1.52;;
33830;SDS011;20137;48.834;8.732;2023-12-29T14:54:31;3.25;;;1.23;;
33830;SDS011;20137;48.834;8.732;2023-12-29T14:56:57;1.42;;;1.23;;
33830;SDS011;20137;48.834;8.732;2023-12-29T14:59:23;2.33;;;1.17;;
33830;SDS011;20137;48.834;8.732;2023-12-29T15:01:49;2.90;;;1.70;;
33830;SDS011;20137;48.834;8.732;2023-12-29T15:04:15;3.60;;;1.55;;
33830;SDS011;20137;48.834;8.732;2023-12-29T15:06:41;2.45;;;1.80;;
33830;SDS011;20137;48.834;8.732;2023-12-29T15:09:07;1.67;;;1.35;;
33830;SDS011;20137;48.834;8.732;2023-12-29T15:11:35;3.03;;;1.80;;
33830;SDS011;20137;48.834;8.732;2023-12-29T15:14:01;2.83;;;1.35;;
33830;SDS011;20137;48.834;8.732;2023-12-29T15:16:27;3.38;;;1.85;;
33830;SDS011;20137;48.834;8.732;2023-12-29T15:18:53;3.28;;;0.90;;
33830;SDS011;20137;48.834;8.732;2023-12-29T15:21:19;2.28;;;1.35;;